createdAt,value
2023-05-02T00:04:10.275Z,3.03
2023-05-02T00:09:04.560Z,5.72
2023-05-02T00:13:59.110Z,3.97
2023-05-02T00:18:52.272Z,3.75
2023-05-02T00:23:45.524Z,4.90
2023-05-02T00:28:38.832Z,3.40
2023-05-02T00:33:33.577Z,5.30
2023-05-02T00:38:26.957Z,4.43
2023-05-02T00:43:31.793Z,3.72
2023-05-02T00:48:27.068Z,5.97
2023-05-02T00:53:23.075Z,4.75
2023-05-02T00:58:21.738Z,4.00
2023-05-02T01:03:27.218Z,4.00
2023-05-02T01:08:29.601Z,3.72
2023-05-02T01:13:25.952Z,5.60
2023-05-02T01:18:23.753Z,4.63
2023-05-02T01:23:27.129Z,3.78
2023-05-02T01:28:37.093Z,3.63
2023-05-02T01:33:32.836Z,4.45
2023-05-02T01:38:27.504Z,3.80
2023-05-02T01:43:22.357Z,5.45
2023-05-02T01:48:18.321Z,4.47
2023-05-02T01:53:14.790Z,4.85
2023-05-02T01:58:08.887Z,5.20
2023-05-02T02:03:03.961Z,4.68
2023-05-02T02:07:57.219Z,6.72
2023-05-02T02:12:55.373Z,7.65
2023-05-02T02:17:55.487Z,7.50
2023-05-02T02:22:54.466Z,7.88
2023-05-02T02:27:49.109Z,6.43
2023-05-02T02:32:43.943Z,6.13
2023-05-02T02:37:42.998Z,6.18
2023-05-02T02:42:45.388Z,5.30
2023-05-02T02:47:46.097Z,6.65
2023-05-02T02:52:54.785Z,12.70
2023-05-02T02:57:53.878Z,11.48
2023-05-02T03:02:49.697Z,10.50
2023-05-02T03:07:43.205Z,11.90
2023-05-02T03:12:36.889Z,11.10
2023-05-02T03:17:31.639Z,10.20
2023-05-02T03:22:26.449Z,11.98
2023-05-02T03:27:20.143Z,10.32
2023-05-02T03:32:13.858Z,11.70
2023-05-02T03:37:09.921Z,12.93
2023-05-02T03:42:05.678Z,11.00
2023-05-02T03:46:59.251Z,10.85
2023-05-02T03:51:56.297Z,10.55
2023-05-02T03:56:55.681Z,11.55
2023-05-02T04:01:56.303Z,11.77
2023-05-02T04:07:02.346Z,12.52
2023-05-02T04:11:57.361Z,16.42
2023-05-02T04:16:51.434Z,14.07
2023-05-02T04:21:52.569Z,12.95
2023-05-02T04:26:47.954Z,13.35
2023-05-02T04:31:41.988Z,14.10
2023-05-02T04:36:37.185Z,14.43
2023-05-02T04:41:33.280Z,12.48
2023-05-02T04:46:31.489Z,18.70
2023-05-02T04:51:25.415Z,14.95
2023-05-02T04:56:19.295Z,16.55
2023-05-02T05:01:16.958Z,17.73
2023-05-02T05:06:12.725Z,15.10
2023-05-02T05:11:06.674Z,18.95
2023-05-02T05:16:00.493Z,14.65
2023-05-02T05:20:58.493Z,9.38
2023-05-02T05:25:51.657Z,12.00
2023-05-02T05:30:46.369Z,8.75
2023-05-02T05:35:43.149Z,7.15
2023-05-02T05:40:38.288Z,10.63
2023-05-02T05:45:33.674Z,7.30
2023-05-02T05:50:27.502Z,8.38
2023-05-02T05:55:20.858Z,12.00
2023-05-02T06:00:17.991Z,10.88
2023-05-02T06:05:15.118Z,11.43
2023-05-02T06:10:11.073Z,8.23
2023-05-02T06:15:07.761Z,12.25
2023-05-02T06:20:06.827Z,6.00
2023-05-02T06:25:00.996Z,6.78
2023-05-02T06:29:54.586Z,8.73
2023-05-02T06:34:47.827Z,8.15
2023-05-02T06:39:42.450Z,9.60
2023-05-02T06:44:35.791Z,5.45
2023-05-02T06:49:29.018Z,11.85
2023-05-02T06:54:22.341Z,5.82
2023-05-02T06:59:17.082Z,6.28
2023-05-02T07:04:10.483Z,4.53
2023-05-02T07:09:05.075Z,8.05
2023-05-02T07:13:58.430Z,11.68
2023-05-02T07:18:53.101Z,7.20
2023-05-02T07:23:46.345Z,6.57
2023-05-02T07:28:39.997Z,4.22
2023-05-02T07:33:33.604Z,5.50
2023-05-02T07:38:29.043Z,4.25
2023-05-02T07:43:22.936Z,3.50
2023-05-02T07:48:16.665Z,5.03
2023-05-02T07:53:11.086Z,4.05
2023-05-02T07:58:05.859Z,5.80
2023-05-02T08:02:59.178Z,7.03
2023-05-02T08:07:52.536Z,4.88
2023-05-02T08:12:45.953Z,4.10
2023-05-02T08:17:40.709Z,6.20
2023-05-02T08:22:34.023Z,4.07
2023-05-02T08:27:27.162Z,4.00
2023-05-02T08:32:20.302Z,3.92
2023-05-02T08:37:15.130Z,7.90
2023-05-02T08:42:08.992Z,5.35
2023-05-02T08:47:04.593Z,6.00
2023-05-02T08:52:00.631Z,5.03
2023-05-02T08:56:55.842Z,3.88
2023-05-02T09:01:51.144Z,4.50
2023-05-02T09:06:44.368Z,4.55
2023-05-02T09:11:40.716Z,2.95
2023-05-02T09:16:40.603Z,4.07
2023-05-02T09:21:43.485Z,4.18
2023-05-02T09:26:36.723Z,6.10
2023-05-02T09:31:54.023Z,8.27
2023-05-02T09:36:54.598Z,6.18
2023-05-02T09:41:49.504Z,3.10
2023-05-02T09:46:43.459Z,3.50
2023-05-02T09:51:37.053Z,2.75
2023-05-02T09:56:31.663Z,4.93
2023-05-02T10:01:25.195Z,4.45
2023-05-02T10:06:23.462Z,3.40
2023-05-02T10:11:16.874Z,3.67
2023-05-02T10:16:14.307Z,4.53
2023-05-02T10:21:10.246Z,4.60
2023-05-02T10:26:03.945Z,2.65
2023-05-02T10:30:58.467Z,4.38
2023-05-02T10:35:54.645Z,3.00
2023-05-02T10:40:57.969Z,2.65
2023-05-02T10:45:55.832Z,5.82
2023-05-02T10:50:57.320Z,3.97
2023-05-02T10:56:18.662Z,3.63
2023-05-02T11:01:36.728Z,4.15
2023-05-02T11:06:33.712Z,2.30
2023-05-02T11:11:46.037Z,5.90
2023-05-02T11:17:12.070Z,7.70
2023-05-02T11:22:33.596Z,3.50
2023-05-02T11:27:44.086Z,3.65
2023-05-02T11:33:24.328Z,2.88
2023-05-02T11:38:22.642Z,2.90
2023-05-02T11:43:21.521Z,6.18
2023-05-02T11:48:17.608Z,5.03
2023-05-02T11:53:14.825Z,3.40
2023-05-02T11:58:14.899Z,4.10
2023-05-02T12:03:08.528Z,2.10
2023-05-02T12:08:04.013Z,3.45
2023-05-02T12:13:18.493Z,5.05
2023-05-02T12:18:12.607Z,3.13
2023-05-02T12:23:07.201Z,2.40
2023-05-02T12:28:01.611Z,2.60
2023-05-02T12:32:59.845Z,4.53
2023-05-02T12:43:00.538Z,3.75
2023-05-02T12:47:53.903Z,7.88
2023-05-02T12:52:50.089Z,3.95
2023-05-02T12:57:44.054Z,3.53
2023-05-02T13:02:38.869Z,3.15
2023-05-02T13:07:32.018Z,3.53
2023-05-02T13:12:26.702Z,5.32
2023-05-02T13:17:20.187Z,4.85
2023-05-02T13:22:13.526Z,4.68
2023-05-02T13:27:06.786Z,4.15
2023-05-02T13:32:04.109Z,4.55
2023-05-02T13:36:58.038Z,3.10
2023-05-02T13:41:51.532Z,3.45
2023-05-02T13:46:44.997Z,2.45
2023-05-02T13:51:40.623Z,1.90
2023-05-02T13:56:34.378Z,8.73
2023-05-02T14:01:28.882Z,2.63
2023-05-02T14:06:22.875Z,3.50
2023-05-02T14:11:18.091Z,2.15
2023-05-02T14:16:11.523Z,2.20
2023-05-02T14:21:04.936Z,3.03
2023-05-02T14:25:59.445Z,2.55
2023-05-02T14:30:54.200Z,5.13
2023-05-02T14:35:50.031Z,3.50
2023-05-02T14:40:43.241Z,6.63
2023-05-02T14:45:36.504Z,3.85
2023-05-02T14:50:31.155Z,7.38
2023-05-02T14:55:24.479Z,3.60
2023-05-02T15:00:18.975Z,4.35
2023-05-02T15:05:13.157Z,3.90
2023-05-02T15:10:09.407Z,9.52
2023-05-02T15:15:02.658Z,5.68
2023-05-02T15:19:58.352Z,4.60
2023-05-02T15:24:57.688Z,3.22
2023-05-02T15:29:52.474Z,4.45
2023-05-02T15:34:46.910Z,3.70
2023-05-02T15:39:42.870Z,6.90
2023-05-02T15:44:39.058Z,3.88
2023-05-02T15:49:34.697Z,5.32
2023-05-02T15:54:28.247Z,3.30
2023-05-02T15:59:21.523Z,7.22
2023-05-02T16:04:15.651Z,2.88
2023-05-02T16:09:10.848Z,4.57
2023-05-02T16:14:04.279Z,4.45
2023-05-02T16:18:57.505Z,7.35
2023-05-02T16:23:50.740Z,6.55
2023-05-02T16:28:45.489Z,4.47
2023-05-02T16:33:39.277Z,3.75
2023-05-02T16:38:36.481Z,5.38
2023-05-02T16:43:29.719Z,5.72
2023-05-02T16:48:24.623Z,4.53
2023-05-02T16:53:17.889Z,3.97
2023-05-02T16:58:11.122Z,2.50
2023-05-02T17:03:05.624Z,3.38
2023-05-02T17:08:00.389Z,3.15
2023-05-02T17:12:56.022Z,7.40
2023-05-02T17:17:49.425Z,3.95
2023-05-02T17:22:42.894Z,3.35
2023-05-02T17:27:40.049Z,3.30
2023-05-02T17:32:40.521Z,6.18
2023-05-02T17:42:27.243Z,6.80
2023-05-02T17:47:29.733Z,5.03
2023-05-02T17:52:22.918Z,3.50
2023-05-02T17:57:25.782Z,5.47
2023-05-02T18:02:18.928Z,3.67
2023-05-02T18:07:13.446Z,3.85
2023-05-02T18:12:07.013Z,5.13
2023-05-02T18:17:00.260Z,6.72
2023-05-02T18:21:55.623Z,3.95
2023-05-02T18:26:56.328Z,3.22
2023-05-02T18:31:52.695Z,4.80
2023-05-02T18:36:46.225Z,6.00
2023-05-02T18:41:39.514Z,4.38
2023-05-02T18:46:36.360Z,5.55
2023-05-02T18:51:30.260Z,4.93
2023-05-02T18:56:23.441Z,5.03
2023-05-02T19:01:20.248Z,5.85
2023-05-02T19:06:15.333Z,4.70
2023-05-02T19:11:09.285Z,4.90
2023-05-02T19:16:02.628Z,4.28
2023-05-02T19:20:57.337Z,4.65
2023-05-02T19:25:53.046Z,5.63
2023-05-02T19:30:49.165Z,4.32
2023-05-02T19:35:42.589Z,4.32
2023-05-02T19:40:35.952Z,3.35
2023-05-02T19:45:30.573Z,3.50
2023-05-02T19:50:24.494Z,4.35
2023-05-02T19:55:18.634Z,7.32
2023-05-02T20:00:17.353Z,4.22
2023-05-02T20:05:12.812Z,6.05
2023-05-02T20:10:10.149Z,6.88
2023-05-02T20:15:08.146Z,5.82
2023-05-02T20:20:07.330Z,5.20
2023-05-02T20:25:02.334Z,3.47
2023-05-02T20:29:56.094Z,5.78
2023-05-02T20:34:49.357Z,4.43
2023-05-02T20:39:42.501Z,6.78
2023-05-02T20:44:36.938Z,4.28
2023-05-02T20:49:33.278Z,3.58
2023-05-02T20:54:26.832Z,4.32
2023-05-02T20:59:20.261Z,4.45
2023-05-02T21:04:14.892Z,3.83
2023-05-02T21:09:09.569Z,4.95
2023-05-02T21:14:02.702Z,3.45
2023-05-02T21:18:56.043Z,9.00
2023-05-02T21:23:50.587Z,3.75
2023-05-02T21:28:43.734Z,5.97
2023-05-02T21:33:36.872Z,3.75
2023-05-02T21:38:30.536Z,4.50
2023-05-02T21:43:25.030Z,4.32
2023-05-02T21:48:18.490Z,3.20
2023-05-02T21:53:12.151Z,2.88
2023-05-02T21:58:05.465Z,5.72
2023-05-02T22:03:01.743Z,4.80
2023-05-02T22:07:55.717Z,3.45
2023-05-02T22:12:48.876Z,4.35
2023-05-02T22:17:43.377Z,4.72
2023-05-02T22:22:40.636Z,3.75
2023-05-02T22:27:33.828Z,3.92
2023-05-02T22:32:26.969Z,4.05
2023-05-02T22:37:20.136Z,4.38
2023-05-02T22:42:14.550Z,5.50
2023-05-02T22:47:08.586Z,4.97
2023-05-02T22:52:02.709Z,5.57
2023-05-02T22:56:55.759Z,3.90
2023-05-02T23:01:50.873Z,3.97
2023-05-02T23:06:44.131Z,3.47
2023-05-02T23:11:37.303Z,4.95
2023-05-02T23:16:30.501Z,5.40
2023-05-02T23:21:25.097Z,3.13
2023-05-02T23:26:18.294Z,4.90
2023-05-02T23:31:11.489Z,3.17
2023-05-02T23:36:06.816Z,3.83
2023-05-02T23:41:01.299Z,3.80
2023-05-02T23:45:54.481Z,5.32
2023-05-02T23:50:47.764Z,5.10
2023-05-02T23:55:41.550Z,5.47
